createdAt,value
2022-08-04T00:00:39.188Z,22.20
2022-08-04T00:04:45.776Z,22.40
2022-08-04T00:08:56.337Z,22.40
2022-08-04T00:12:58.755Z,22.10
2022-08-04T00:17:03.406Z,22.20
2022-08-04T00:21:05.905Z,22.30
2022-08-04T00:25:07.832Z,22.20
2022-08-04T00:29:10.330Z,22.10
2022-08-04T00:33:12.753Z,22.00
2022-08-04T00:37:14.870Z,22.30
2022-08-04T00:41:19.544Z,22.30
2022-08-04T00:46:00.478Z,22.20
2022-08-04T00:50:11.966Z,21.90
2022-08-04T00:54:19.681Z,22.00
2022-08-04T00:58:27.769Z,22.10
2022-08-04T01:02:35.616Z,22.10
2022-08-04T01:06:41.257Z,22.10
2022-08-04T01:11:03.018Z,22.00
2022-08-04T01:15:17.298Z,21.90
2022-08-04T01:19:19.357Z,22.00
2022-08-04T01:23:30.213Z,21.90
2022-08-04T01:27:50.764Z,21.80
2022-08-04T01:32:02.349Z,21.60
2022-08-04T01:36:09.827Z,21.60
2022-08-04T01:40:13.625Z,21.60
2022-08-04T01:44:16.793Z,21.40
2022-08-04T01:48:23.892Z,21.40
2022-08-04T01:52:28.129Z,21.40
2022-08-04T01:56:30.815Z,21.20
2022-08-04T02:00:32.435Z,21.10
2022-08-04T02:04:35.489Z,21.10
2022-08-04T02:08:55.862Z,21.10
2022-08-04T02:13:16.219Z,20.90
2022-08-04T02:17:31.978Z,20.80
2022-08-04T02:21:42.723Z,20.80
2022-08-04T02:25:49.535Z,20.80
2022-08-04T02:30:00.678Z,20.90
2022-08-04T02:34:09.815Z,20.90
2022-08-04T02:38:12.765Z,21.10
2022-08-04T02:42:15.192Z,21.20
2022-08-04T02:46:23.426Z,21.10
2022-08-04T02:50:28.283Z,21.20
2022-08-04T02:54:33.945Z,21.30
2022-08-04T02:58:36.992Z,21.20
2022-08-04T03:02:38.640Z,21.20
2022-08-04T03:06:46.285Z,21.00
2022-08-04T03:10:57.359Z,21.00
2022-08-04T03:15:24.197Z,21.00
2022-08-04T03:19:25.933Z,20.90
2022-08-04T03:23:46.385Z,20.90
2022-08-04T03:27:51.151Z,20.90
2022-08-04T03:32:11.427Z,20.80
2022-08-04T03:36:38.492Z,20.80
2022-08-04T03:41:00.345Z,20.80
2022-08-04T03:45:02.029Z,20.60
2022-08-04T03:49:22.023Z,20.80
2022-08-04T03:53:33.426Z,20.70
2022-08-04T03:57:41.126Z,20.60
2022-08-04T04:02:02.175Z,20.60
2022-08-04T04:06:14.346Z,20.60
2022-08-04T04:10:30.282Z,20.60
2022-08-04T04:14:35.075Z,20.30
2022-08-04T04:18:39.752Z,20.50
2022-08-04T04:22:49.415Z,20.50
2022-08-04T04:26:57.085Z,20.60
2022-08-04T04:31:22.415Z,20.60
2022-08-04T04:35:24.361Z,20.60
2022-08-04T04:39:36.698Z,20.80
2022-08-04T04:43:59.487Z,20.90
2022-08-04T04:48:10.503Z,20.90
2022-08-04T04:52:27.371Z,20.90
2022-08-04T04:56:41.519Z,21.10
2022-08-04T05:00:46.028Z,21.10
2022-08-04T05:05:09.413Z,21.20
2022-08-04T05:09:29.950Z,21.40
2022-08-04T05:14:36.355Z,21.70
2022-08-04T05:17:57.188Z,22.00
2022-08-04T05:22:01.367Z,22.50
2022-08-04T05:26:11.725Z,22.60
2022-08-04T05:30:13.775Z,22.60
2022-08-04T05:34:17.339Z,22.80
2022-08-04T05:38:20.926Z,23.00
2022-08-04T05:42:23.435Z,23.50
2022-08-04T05:46:25.987Z,23.90
2022-08-04T05:50:28.165Z,24.30
2022-08-04T05:54:35.890Z,24.40
2022-08-04T05:58:38.328Z,24.30
2022-08-04T06:02:40.744Z,24.10
2022-08-04T06:06:46.297Z,24.40
2022-08-04T06:10:48.593Z,24.80
2022-08-04T06:14:51.023Z,25.00
2022-08-04T06:20:00.847Z,25.20
2022-08-04T06:23:16.855Z,25.40
2022-08-04T06:27:19.146Z,25.70
2022-08-04T06:32:27.885Z,26.10
2022-08-04T06:36:06.796Z,26.30
2022-08-04T06:40:31.681Z,26.50
2022-08-04T06:44:31.477Z,26.40
2022-08-04T06:48:33.827Z,26.60
2022-08-04T06:52:35.981Z,26.60
2022-08-04T06:56:39.689Z,26.50
2022-08-04T07:00:42.211Z,26.70
2022-08-04T07:04:44.580Z,26.70
2022-08-04T07:08:46.483Z,27.20
2022-08-04T07:12:48.329Z,27.30
2022-08-04T07:16:50.974Z,27.40
2022-08-04T07:20:52.728Z,27.60
2022-08-04T07:24:55.406Z,27.70
2022-08-04T07:28:59.693Z,28.10
2022-08-04T07:33:01.782Z,28.30
2022-08-04T07:37:03.615Z,28.50
2022-08-04T07:41:35.288Z,28.40
2022-08-04T07:45:31.567Z,28.60
2022-08-04T07:49:56.385Z,28.70
2022-08-04T07:53:56.693Z,28.90
2022-08-04T07:57:58.682Z,29.10
2022-08-04T08:02:01.319Z,29.30
2022-08-04T08:06:30.835Z,29.90
2022-08-04T08:10:26.012Z,30.00
2022-08-04T08:14:28.278Z,30.00
2022-08-04T08:18:30.330Z,30.20
2022-08-04T08:22:32.191Z,30.50
2022-08-04T08:26:34.819Z,30.90
2022-08-04T08:30:37.090Z,30.80
2022-08-04T08:34:39.355Z,30.90
2022-08-04T08:38:45.238Z,30.90
2022-08-04T08:44:05.207Z,31.30
2022-08-04T08:48:04.831Z,31.60
2022-08-04T08:52:05.285Z,31.60
2022-08-04T08:56:17.691Z,31.90
2022-08-04T09:00:38.081Z,32.10
2022-08-04T09:05:02.721Z,32.30
2022-08-04T09:09:23.286Z,32.40
2022-08-04T09:13:27.618Z,32.60
2022-08-04T09:17:33.730Z,31.90
2022-08-04T09:21:42.798Z,32.10
2022-08-04T09:25:53.043Z,32.00
2022-08-04T09:29:58.123Z,32.00
2022-08-04T09:34:11.663Z,31.90
2022-08-04T09:38:16.866Z,31.90
2022-08-04T09:42:25.656Z,32.00
2022-08-04T09:46:40.828Z,32.00
2022-08-04T09:50:49.943Z,32.00
2022-08-04T09:55:11.772Z,31.80
2022-08-04T09:59:14.094Z,31.80
2022-08-04T10:03:20.235Z,31.90
2022-08-04T10:07:34.531Z,31.90
2022-08-04T10:11:36.125Z,32.20
2022-08-04T10:16:00.805Z,32.40
2022-08-04T10:20:09.051Z,32.60
2022-08-04T10:24:30.010Z,32.60
2022-08-04T10:28:35.122Z,32.90
2022-08-04T10:32:55.739Z,32.90
2022-08-04T10:37:00.776Z,33.10
2022-08-04T10:41:10.322Z,33.30
2022-08-04T10:45:19.037Z,33.20
2022-08-04T10:49:24.166Z,33.10
2022-08-04T10:53:26.759Z,34.20
2022-08-04T10:57:36.952Z,34.20
2022-08-04T11:02:00.714Z,33.40
2022-08-04T11:06:05.023Z,33.20
2022-08-04T11:10:07.884Z,33.10
2022-08-04T11:14:13.801Z,32.70
2022-08-04T11:18:22.091Z,32.90
2022-08-04T11:22:25.561Z,32.70
2022-08-04T11:26:45.768Z,32.60
2022-08-04T11:30:57.685Z,32.30
2022-08-04T11:35:01.974Z,32.40
2022-08-04T11:39:15.697Z,32.30
2022-08-04T11:44:01.362Z,32.30
2022-08-04T11:47:48.469Z,32.50
2022-08-04T11:51:51.234Z,32.70
2022-08-04T11:56:08.241Z,32.30
2022-08-04T12:00:14.346Z,31.90
2022-08-04T12:04:26.892Z,31.70
2022-08-04T12:08:54.042Z,31.00
2022-08-04T12:13:14.589Z,30.70
2022-08-04T12:17:22.626Z,30.40
2022-08-04T12:21:34.667Z,30.10
2022-08-04T12:25:44.764Z,29.80
2022-08-04T12:30:54.201Z,30.00
2022-08-04T12:34:18.736Z,29.60
2022-08-04T12:38:21.686Z,29.60
2022-08-04T12:42:32.615Z,29.70
2022-08-04T12:46:35.351Z,30.00
2022-08-04T12:50:37.035Z,30.60
2022-08-04T12:54:39.204Z,30.70
2022-08-04T12:58:45.327Z,30.60
2022-08-04T13:02:47.430Z,30.90
2022-08-04T13:06:55.314Z,30.70
2022-08-04T13:10:57.844Z,30.60
2022-08-04T13:15:08.718Z,31.10
2022-08-04T13:19:12.152Z,31.50
2022-08-04T13:23:15.003Z,31.60
2022-08-04T13:27:24.272Z,31.60
2022-08-04T13:31:27.898Z,31.40
2022-08-04T13:35:55.168Z,31.50
2022-08-04T13:39:59.516Z,31.60
2022-08-04T13:44:18.534Z,31.30
2022-08-04T13:48:32.699Z,30.80
2022-08-04T13:52:35.217Z,30.60
2022-08-04T13:56:51.534Z,30.90
2022-08-04T14:01:01.215Z,31.00
2022-08-04T14:05:18.108Z,31.70
2022-08-04T14:09:35.439Z,31.30
2022-08-04T14:13:41.579Z,31.60
2022-08-04T14:17:43.763Z,31.70
2022-08-04T14:21:45.402Z,31.20
2022-08-04T14:25:47.196Z,30.70
2022-08-04T14:29:49.336Z,31.40
2022-08-04T14:34:02.118Z,31.30
2022-08-04T14:38:07.991Z,31.30
2022-08-04T14:42:14.287Z,31.20
2022-08-04T14:46:16.835Z,31.00
2022-08-04T14:50:19.236Z,30.70
2022-08-04T14:54:34.292Z,30.70
2022-08-04T14:58:39.431Z,30.30
2022-08-04T15:02:42.758Z,30.20
2022-08-04T15:06:46.668Z,30.30
2022-08-04T15:10:48.347Z,30.30
2022-08-04T15:14:50.076Z,30.30
2022-08-04T15:18:52.662Z,30.10
2022-08-04T15:22:56.469Z,29.70
2022-08-04T15:26:59.772Z,29.40
2022-08-04T15:32:04.786Z,29.20
2022-08-04T15:35:34.906Z,29.00
2022-08-04T15:39:58.568Z,28.60
2022-08-04T15:44:17.960Z,28.20
2022-08-04T15:48:20.219Z,28.20
2022-08-04T15:52:21.996Z,27.90
2022-08-04T15:56:24.654Z,27.70
2022-08-04T16:00:28.593Z,27.60
2022-08-04T16:04:30.234Z,27.60
2022-08-04T16:08:58.234Z,27.60
2022-08-04T16:13:19.803Z,27.70
2022-08-04T16:17:21.543Z,27.60
2022-08-04T16:21:26.043Z,28.00
2022-08-04T16:25:46.294Z,27.80
2022-08-04T16:29:48.540Z,27.10
2022-08-04T16:33:50.278Z,27.30
2022-08-04T16:38:13.405Z,27.10
2022-08-04T16:42:41.677Z,27.20
2022-08-04T16:47:08.400Z,27.30
2022-08-04T16:51:15.379Z,27.30
2022-08-04T16:55:23.833Z,27.70
2022-08-04T16:59:25.960Z,27.70
2022-08-04T17:03:31.032Z,27.80
2022-08-04T17:08:02.242Z,27.70
2022-08-04T17:12:11.250Z,28.00
2022-08-04T17:16:18.100Z,27.90
2022-08-04T17:20:26.866Z,28.30
2022-08-04T17:24:28.624Z,28.70
2022-08-04T17:28:40.032Z,28.20
2022-08-04T17:32:51.644Z,28.30
2022-08-04T17:36:53.353Z,28.40
2022-08-04T17:40:58.191Z,28.30
2022-08-04T17:45:51.322Z,28.10
2022-08-04T17:50:06.092Z,28.20
2022-08-04T17:54:08.530Z,28.30
2022-08-04T17:58:38.960Z,28.20
2022-08-04T18:02:52.581Z,28.00
2022-08-04T18:07:00.230Z,27.90
2022-08-04T18:11:02.050Z,27.80
2022-08-04T18:15:11.111Z,27.30
2022-08-04T18:19:18.933Z,27.00
2022-08-04T18:23:31.392Z,27.10
2022-08-04T18:27:34.009Z,27.00
2022-08-04T18:31:37.914Z,26.90
2022-08-04T18:36:32.844Z,26.70
2022-08-04T18:40:09.733Z,26.70
2022-08-04T18:44:27.495Z,26.70
2022-08-04T18:48:36.942Z,26.70
2022-08-04T18:52:45.070Z,26.60
2022-08-04T18:57:24.465Z,26.30
2022-08-04T19:01:13.498Z,26.50
2022-08-04T19:05:17.115Z,26.40
2022-08-04T19:09:21.118Z,26.50
2022-08-04T19:13:25.492Z,26.40
2022-08-04T19:17:54.067Z,26.40
2022-08-04T19:21:51.248Z,26.20
2022-08-04T19:26:20.717Z,26.10
2022-08-04T19:30:29.396Z,26.10
2022-08-04T19:34:32.993Z,26.10
2022-08-04T19:38:37.239Z,26.10
2022-08-04T19:42:40.573Z,25.80
2022-08-04T19:46:46.456Z,25.60
2022-08-04T19:50:48.414Z,25.30
2022-08-04T19:54:50.411Z,25.00
2022-08-04T19:58:52.451Z,25.00
2022-08-04T20:02:55.201Z,24.90
2022-08-04T20:06:57.634Z,24.90
2022-08-04T20:11:00.158Z,24.80
2022-08-04T20:15:02.126Z,24.60
2022-08-04T20:19:18.749Z,24.50
2022-08-04T20:23:47.763Z,24.50
2022-08-04T20:27:59.333Z,24.40
2022-08-04T20:32:05.600Z,24.30
2022-08-04T20:36:10.546Z,24.30
2022-08-04T20:40:12.514Z,24.10
2022-08-04T20:44:20.208Z,24.00
2022-08-04T20:48:29.434Z,24.00
2022-08-04T20:52:37.161Z,23.90
2022-08-04T20:56:39.550Z,23.70
2022-08-04T21:00:53.242Z,23.70
2022-08-04T21:04:55.168Z,23.70
2022-08-04T21:08:57.818Z,23.60
2022-08-04T21:12:59.637Z,23.60
2022-08-04T21:17:01.553Z,23.60
2022-08-04T21:21:07.570Z,23.60
2022-08-04T21:25:15.984Z,23.70
2022-08-04T21:29:18.383Z,23.70
2022-08-04T21:33:20.217Z,23.60
2022-08-04T21:37:23.973Z,23.60
2022-08-04T21:42:27.606Z,23.60
2022-08-04T21:46:07.427Z,23.50
2022-08-04T21:50:09.222Z,23.50
2022-08-04T21:54:11.657Z,23.50
2022-08-04T21:58:33.181Z,23.40
2022-08-04T22:02:34.870Z,23.40
2022-08-04T22:06:36.880Z,23.40
2022-08-04T22:10:40.002Z,23.30
2022-08-04T22:14:50.495Z,23.50
2022-08-04T22:18:59.825Z,23.50
2022-08-04T22:23:15.432Z,23.50
2022-08-04T22:27:37.526Z,23.50
2022-08-04T22:31:56.103Z,23.00
2022-08-04T22:35:58.814Z,22.90
2022-08-04T22:40:00.564Z,22.80
2022-08-04T22:44:03.968Z,22.60
2022-08-04T22:48:05.693Z,21.90
2022-08-04T22:52:18.653Z,21.80
2022-08-04T22:56:38.480Z,21.70
2022-08-04T23:00:40.828Z,21.50
2022-08-04T23:04:44.361Z,21.40
2022-08-04T23:08:46.495Z,21.40
2022-08-04T23:12:50.176Z,21.40
2022-08-04T23:16:53.357Z,21.20
2022-08-04T23:20:55.127Z,21.30
2022-08-04T23:24:56.934Z,21.40
2022-08-04T23:28:58.601Z,21.50
2022-08-04T23:33:00.247Z,21.70
2022-08-04T23:37:01.886Z,21.60
2022-08-04T23:41:08.865Z,21.50
2022-08-04T23:45:15.328Z,21.60
2022-08-04T23:49:44.139Z,21.60
2022-08-04T23:54:01.801Z,21.50
2022-08-04T23:58:18.553Z,21.60
